createdAt,value
2022-12-28T00:01:13.710Z,99447.06
2022-12-28T00:03:40.553Z,99447.00
2022-12-28T00:06:07.309Z,99445.03
2022-12-28T00:08:33.965Z,99437.59
2022-12-28T00:11:08.870Z,99434.31
2022-12-28T00:13:37.993Z,99423.91
2022-12-28T00:16:35.129Z,99433.16
2022-12-28T00:19:04.767Z,99426.34
2022-12-28T00:21:31.859Z,99429.03
2022-12-28T00:23:59.989Z,99423.44
2022-12-28T00:26:29.146Z,99424.91
2022-12-28T00:29:03.635Z,99420.81
2022-12-28T00:31:32.404Z,99412.44
2022-12-28T00:33:59.118Z,99420.13
2022-12-28T00:37:08.885Z,99417.94
2022-12-28T00:39:13.665Z,99421.38
2022-12-28T00:41:40.329Z,99411.34
2022-12-28T00:44:07.278Z,99418.53
2022-12-28T00:46:33.893Z,99415.16
2022-12-28T00:49:00.540Z,99410.59
2022-12-28T00:51:27.411Z,99422.34
2022-12-28T00:53:54.075Z,99424.56
2022-12-28T00:56:22.587Z,99422.91
2022-12-28T00:58:50.005Z,99425.66
2022-12-28T01:01:19.764Z,99431.13
2022-12-28T01:03:47.012Z,99429.78
2022-12-28T01:06:16.689Z,99425.06
2022-12-28T01:08:43.969Z,99423.34
2022-12-28T01:11:21.799Z,99421.47
2022-12-28T01:13:49.642Z,99416.41
2022-12-28T01:16:21.494Z,99415.88
2022-12-28T01:18:49.371Z,99410.53
2022-12-28T01:21:18.717Z,99418.22
2022-12-28T01:23:47.103Z,99416.00
2022-12-28T01:26:14.502Z,99412.31
2022-12-28T01:28:41.136Z,99414.91
2022-12-28T01:31:12.194Z,99410.78
2022-12-28T01:33:39.690Z,99414.25
2022-12-28T01:36:08.382Z,99400.78
2022-12-28T01:38:39.289Z,99397.19
2022-12-28T01:41:11.106Z,99394.50
2022-12-28T01:43:43.252Z,99395.94
2022-12-28T01:46:15.557Z,99383.63
2022-12-28T01:48:49.735Z,99389.28
2022-12-28T01:51:18.990Z,99388.59
2022-12-28T01:53:47.063Z,99388.44
2022-12-28T01:56:13.846Z,99390.09
2022-12-28T01:58:40.746Z,99382.44
2022-12-28T02:01:07.663Z,99383.06
2022-12-28T02:03:35.459Z,99382.81
2022-12-28T02:06:06.497Z,99385.09
2022-12-28T02:08:51.962Z,99384.75
2022-12-28T02:11:19.867Z,99372.16
2022-12-28T02:13:48.921Z,99363.28
2022-12-28T02:16:15.905Z,99365.88
2022-12-28T02:18:44.929Z,99349.19
2022-12-28T02:21:27.721Z,99351.66
2022-12-28T02:24:29.544Z,99351.91
2022-12-28T02:27:13.046Z,99346.81
2022-12-28T02:29:56.025Z,99346.47
2022-12-28T02:32:34.968Z,99348.13
2022-12-28T02:35:19.672Z,99349.69
2022-12-28T02:37:52.803Z,99350.28
2022-12-28T02:40:28.197Z,99351.09
2022-12-28T02:42:55.560Z,99353.63
2022-12-28T02:45:47.479Z,99354.25
2022-12-28T02:48:29.384Z,99345.50
2022-12-28T02:51:14.883Z,99345.25
2022-12-28T02:53:59.853Z,99341.69
2022-12-28T02:56:46.379Z,99338.03
2022-12-28T02:59:34.936Z,99332.97
2022-12-28T03:02:29.544Z,99325.38
2022-12-28T03:05:51.310Z,99310.06
2022-12-28T03:08:27.297Z,99308.66
2022-12-28T03:11:04.403Z,99304.41
2022-12-28T03:13:48.203Z,99297.53
2022-12-28T03:16:28.619Z,99310.19
2022-12-28T03:19:17.661Z,99309.09
2022-12-28T03:21:59.997Z,99302.75
2022-12-28T03:24:44.618Z,99295.38
2022-12-28T03:27:29.942Z,99296.09
2022-12-28T03:30:19.216Z,99291.97
2022-12-28T03:32:48.021Z,99289.81
2022-12-28T03:35:17.190Z,99292.03
2022-12-28T03:37:53.997Z,99288.63
2022-12-28T03:40:49.565Z,99283.41
2022-12-28T03:43:39.197Z,99290.50
2022-12-28T03:46:14.376Z,99289.69
2022-12-28T03:48:43.275Z,99274.91
2022-12-28T03:51:12.105Z,99281.63
2022-12-28T03:53:43.455Z,99277.28
2022-12-28T03:56:13.620Z,99272.31
2022-12-28T03:58:40.292Z,99261.84
2022-12-28T04:01:07.237Z,99268.38
2022-12-28T04:03:34.199Z,99256.66
2022-12-28T04:06:01.165Z,99257.47
2022-12-28T04:08:28.233Z,99253.00
2022-12-28T04:10:55.522Z,99249.53
2022-12-28T04:13:22.118Z,99248.03
2022-12-28T04:16:05.369Z,99250.63
2022-12-28T04:18:33.268Z,99250.53
2022-12-28T04:21:00.573Z,99251.47
2022-12-28T04:23:27.766Z,99256.41
2022-12-28T04:26:02.651Z,99252.03
2022-12-28T04:28:30.220Z,99250.06
2022-12-28T04:30:57.908Z,99260.16
2022-12-28T04:33:25.477Z,99258.81
2022-12-28T04:35:54.090Z,99253.28
2022-12-28T04:38:21.355Z,99256.84
2022-12-28T04:40:47.985Z,99269.56
2022-12-28T04:43:14.661Z,99256.69
2022-12-28T04:45:41.304Z,99256.03
2022-12-28T04:48:07.969Z,99253.28
2022-12-28T04:50:36.349Z,99254.81
2022-12-28T04:53:02.989Z,99249.75
2022-12-28T04:55:32.452Z,99241.25
2022-12-28T04:58:00.661Z,99244.78
2022-12-28T05:00:27.609Z,99242.91
2022-12-28T05:02:54.359Z,99245.38
2022-12-28T05:05:21.038Z,99256.03
2022-12-28T05:07:47.713Z,99249.16
2022-12-28T05:10:14.467Z,99245.03
2022-12-28T05:12:41.144Z,99245.63
2022-12-28T05:15:08.112Z,99239.25
2022-12-28T05:17:34.742Z,99245.78
2022-12-28T05:20:01.383Z,99233.53
2022-12-28T05:22:28.282Z,99245.22
2022-12-28T05:24:55.477Z,99243.19
2022-12-28T05:27:22.103Z,99239.66
2022-12-28T05:29:48.833Z,99242.81
2022-12-28T05:32:15.936Z,99235.97
2022-12-28T05:34:42.586Z,99238.44
2022-12-28T05:37:09.219Z,99231.13
2022-12-28T05:39:39.080Z,99232.78
2022-12-28T05:42:05.932Z,99226.56
2022-12-28T05:44:32.686Z,99215.69
2022-12-28T05:46:59.373Z,99209.69
2022-12-28T05:49:26.029Z,99206.81
2022-12-28T05:51:52.706Z,99200.56
2022-12-28T05:54:19.981Z,99200.44
2022-12-28T05:56:49.594Z,99211.75
2022-12-28T05:59:16.281Z,99202.53
2022-12-28T06:01:44.271Z,99208.69
2022-12-28T06:04:16.989Z,99211.72
2022-12-28T06:06:44.847Z,99207.47
2022-12-28T06:09:12.429Z,99209.13
2022-12-28T06:11:39.508Z,99194.66
2022-12-28T06:14:06.601Z,99204.38
2022-12-28T06:16:36.062Z,99204.13
2022-12-28T06:19:05.940Z,99196.75
2022-12-28T06:21:34.613Z,99204.06
2022-12-28T06:24:02.911Z,99205.13
2022-12-28T06:26:31.324Z,99203.34
2022-12-28T06:28:58.827Z,99206.88
2022-12-28T06:31:28.264Z,99202.47
2022-12-28T06:33:58.428Z,99200.56
2022-12-28T06:36:28.161Z,99201.16
2022-12-28T06:38:57.174Z,99204.13
2022-12-28T06:41:25.041Z,99207.34
2022-12-28T06:43:52.285Z,99206.72
2022-12-28T06:46:20.808Z,99196.63
2022-12-28T06:48:47.764Z,99192.50
2022-12-28T06:51:17.954Z,99200.06
2022-12-28T06:53:46.824Z,99196.50
2022-12-28T06:56:20.068Z,99201.69
2022-12-28T06:58:48.566Z,99202.13
2022-12-28T07:01:20.454Z,99199.41
2022-12-28T07:03:49.840Z,99199.31
2022-12-28T07:06:18.744Z,99187.75
2022-12-28T07:08:46.116Z,99192.44
2022-12-28T07:11:16.062Z,99197.66
2022-12-28T07:13:43.246Z,99194.78
2022-12-28T07:16:14.334Z,99200.69
2022-12-28T07:18:42.141Z,99196.53
2022-12-28T07:21:12.488Z,99186.38
2022-12-28T07:23:39.171Z,99192.22
2022-12-28T07:26:14.337Z,99189.75
2022-12-28T07:28:43.924Z,99189.63
2022-12-28T07:31:14.862Z,99197.31
2022-12-28T07:33:41.979Z,99195.41
2022-12-28T07:36:11.456Z,99195.25
2022-12-28T07:38:38.837Z,99187.03
2022-12-28T07:41:08.522Z,99188.69
2022-12-28T07:43:35.692Z,99186.38
2022-12-28T07:46:05.488Z,99178.34
2022-12-28T07:48:33.413Z,99189.41
2022-12-28T07:51:10.603Z,99183.31
2022-12-28T07:53:39.020Z,99191.53
2022-12-28T07:56:06.732Z,99205.03
2022-12-28T07:58:33.764Z,99197.81
2022-12-28T08:01:11.271Z,99197.88
2022-12-28T08:03:40.612Z,99202.69
2022-12-28T08:06:11.079Z,99194.91
2022-12-28T08:08:39.532Z,99204.22
2022-12-28T08:11:08.837Z,99219.56
2022-12-28T08:13:37.850Z,99222.66
2022-12-28T08:16:05.744Z,99218.41
2022-12-28T08:18:33.728Z,99218.59
2022-12-28T08:21:02.831Z,99214.69
2022-12-28T08:23:30.627Z,99211.53
2022-12-28T08:26:04.569Z,99209.19
2022-12-28T08:28:31.181Z,99211.56
2022-12-28T08:30:57.792Z,99209.22
2022-12-28T08:33:24.679Z,99201.94
2022-12-28T08:35:51.311Z,99202.09
2022-12-28T08:38:17.923Z,99196.66
2022-12-28T08:40:44.571Z,99195.69
2022-12-28T08:43:11.175Z,99191.72
2022-12-28T08:45:37.826Z,99196.25
2022-12-28T08:48:04.841Z,99194.19
2022-12-28T08:50:33.203Z,99193.25
2022-12-28T08:52:59.881Z,99198.00
2022-12-28T08:55:26.617Z,99195.00
2022-12-28T08:57:53.284Z,99201.16
2022-12-28T09:00:19.977Z,99178.25
2022-12-28T09:02:46.738Z,99199.66
2022-12-28T09:05:13.413Z,99203.09
2022-12-28T09:07:40.012Z,99199.63
2022-12-28T09:10:07.442Z,99207.88
2022-12-28T09:12:37.298Z,99215.47
2022-12-28T09:15:04.271Z,99216.56
2022-12-28T09:17:30.866Z,99206.78
2022-12-28T09:19:57.483Z,99201.88
2022-12-28T09:22:24.139Z,99200.03
2022-12-28T09:24:50.740Z,99196.59
2022-12-28T09:27:17.379Z,99206.34
2022-12-28T09:29:43.975Z,99204.75
2022-12-28T09:32:10.577Z,99192.22
2022-12-28T09:34:38.308Z,99192.22
2022-12-28T09:37:07.056Z,99190.28
2022-12-28T09:39:33.746Z,99190.44
2022-12-28T09:42:14.741Z,99188.19
2022-12-28T09:44:42.360Z,99182.22
2022-12-28T09:47:25.381Z,99179.44
2022-12-28T09:50:25.083Z,99167.38
2022-12-28T09:52:59.053Z,99154.91
2022-12-28T09:55:27.419Z,99142.19
2022-12-28T09:57:57.376Z,99144.84
2022-12-28T10:00:28.768Z,99147.28
2022-12-28T10:03:00.704Z,99148.75
2022-12-28T10:05:27.971Z,99140.91
2022-12-28T10:08:04.762Z,99140.31
2022-12-28T10:10:31.881Z,99133.84
2022-12-28T10:13:37.062Z,99138.94
2022-12-28T10:15:59.814Z,99141.03
2022-12-28T10:18:28.296Z,99139.03
2022-12-28T10:20:55.774Z,99131.59
2022-12-28T10:23:27.739Z,99123.03
2022-12-28T10:25:56.624Z,99121.72
2022-12-28T10:28:28.514Z,99119.25
2022-12-28T10:31:06.318Z,99109.41
2022-12-28T10:33:33.254Z,99101.41
2022-12-28T10:36:00.372Z,99095.97
2022-12-28T10:38:31.631Z,99084.22
2022-12-28T10:41:00.665Z,99083.06
2022-12-28T10:43:32.742Z,99079.28
2022-12-28T10:46:01.947Z,99069.28
2022-12-28T10:48:32.979Z,99068.72
2022-12-28T10:51:00.592Z,99079.56
2022-12-28T10:53:33.061Z,99064.00
2022-12-28T10:56:15.024Z,99058.53
2022-12-28T10:58:46.124Z,99053.84
2022-12-28T11:01:18.040Z,99055.59
2022-12-28T11:04:01.195Z,99047.50
2022-12-28T11:06:30.547Z,99051.41
2022-12-28T11:09:14.051Z,99047.81
2022-12-28T11:11:42.433Z,99042.31
2022-12-28T11:14:34.007Z,99042.03
2022-12-28T11:17:20.388Z,99045.19
2022-12-28T11:19:49.972Z,99039.94
2022-12-28T11:22:23.557Z,99030.63
2022-12-28T11:24:50.547Z,99025.13
2022-12-28T11:27:19.656Z,99016.16
2022-12-28T11:29:50.493Z,99013.19
2022-12-28T11:32:27.765Z,99010.94
2022-12-28T11:34:56.379Z,98997.63
2022-12-28T11:37:23.426Z,99007.94
2022-12-28T11:39:52.186Z,98998.97
2022-12-28T11:42:40.504Z,98993.06
2022-12-28T11:45:35.723Z,98992.88
2022-12-28T11:48:32.926Z,98986.16
2022-12-28T11:51:05.608Z,98987.78
2022-12-28T11:53:32.207Z,98987.47
2022-12-28T11:56:07.938Z,98981.28
2022-12-28T11:58:44.731Z,98970.16
2022-12-28T12:01:33.591Z,98958.81
2022-12-28T12:04:00.341Z,98962.78
2022-12-28T12:06:42.517Z,98955.56
2022-12-28T12:09:24.475Z,98949.72
2022-12-28T12:11:52.032Z,98949.03
2022-12-28T12:14:23.953Z,98947.19
2022-12-28T12:16:54.042Z,98933.06
2022-12-28T12:19:28.909Z,98927.72
2022-12-28T12:22:22.387Z,98925.81
2022-12-28T12:24:54.454Z,98921.06
2022-12-28T12:27:36.688Z,98915.38
2022-12-28T12:30:07.977Z,98905.84
2022-12-28T12:32:44.024Z,98898.84
2022-12-28T12:35:16.603Z,98905.66
2022-12-28T12:38:05.100Z,98900.75
2022-12-28T12:40:47.083Z,98904.63
2022-12-28T12:43:29.503Z,98898.94
2022-12-28T12:46:26.629Z,98895.66
2022-12-28T12:49:07.363Z,98880.75
2022-12-28T12:51:34.984Z,98878.53
2022-12-28T12:54:32.297Z,98872.09
2022-12-28T12:57:14.303Z,98875.06
2022-12-28T12:59:41.945Z,98868.38
2022-12-28T13:02:39.215Z,98861.75
2022-12-28T13:05:06.294Z,98856.31
2022-12-28T13:07:33.604Z,98855.50
2022-12-28T13:10:03.557Z,98851.44
2022-12-28T13:12:30.470Z,98853.34
2022-12-28T13:15:05.951Z,98852.63
2022-12-28T13:17:35.906Z,98850.00
2022-12-28T13:20:19.482Z,98848.38
2022-12-28T13:22:48.848Z,98854.91
2022-12-28T13:25:32.159Z,98845.50
2022-12-28T13:28:01.571Z,98837.50
2022-12-28T13:30:30.098Z,98846.56
2022-12-28T13:32:59.643Z,98835.78
2022-12-28T13:35:29.813Z,98831.50
2022-12-28T13:38:13.701Z,98826.38
2022-12-28T13:40:41.457Z,98819.75
2022-12-28T13:43:41.749Z,98823.94
2022-12-28T13:46:15.074Z,98819.19
2022-12-28T13:48:47.492Z,98815.44
2022-12-28T13:51:17.573Z,98811.19
2022-12-28T13:53:49.555Z,98814.09
2022-12-28T13:56:17.484Z,98801.47
2022-12-28T13:58:50.837Z,98805.84
2022-12-28T14:01:24.313Z,98807.47
2022-12-28T14:04:08.832Z,98813.56
2022-12-28T14:06:46.571Z,98809.81
2022-12-28T14:09:14.888Z,98804.53
2022-12-28T14:11:43.729Z,98805.44
2022-12-28T14:14:12.574Z,98799.97
2022-12-28T14:16:40.397Z,98798.97
2022-12-28T14:19:07.803Z,98795.03
2022-12-28T14:21:44.252Z,98803.25
2022-12-28T14:24:14.507Z,98800.69
2022-12-28T14:26:48.782Z,98797.13
2022-12-28T14:29:24.116Z,98794.47
2022-12-28T14:31:57.624Z,98789.16
2022-12-28T14:34:29.240Z,98793.25
2022-12-28T14:36:57.237Z,98792.25
2022-12-28T14:39:34.929Z,98788.28
2022-12-28T14:42:04.125Z,98796.28
2022-12-28T14:44:30.792Z,98791.22
2022-12-28T14:46:59.584Z,98792.97
2022-12-28T14:49:36.972Z,98794.47
2022-12-28T14:52:38.858Z,98792.56
2022-12-28T14:55:21.416Z,98799.66
2022-12-28T14:57:51.030Z,98791.78
2022-12-28T15:00:28.963Z,98789.03
2022-12-28T15:02:57.030Z,98800.72
2022-12-28T15:05:39.078Z,98800.31
2022-12-28T15:08:06.436Z,98798.75
2022-12-28T15:10:37.901Z,98794.97
2022-12-28T15:13:04.689Z,98796.88
2022-12-28T15:15:31.566Z,98786.97
2022-12-28T15:17:58.247Z,98796.94
2022-12-28T15:20:24.954Z,98786.66
2022-12-28T15:22:53.101Z,98776.09
2022-12-28T15:25:19.751Z,98773.22
2022-12-28T15:27:49.980Z,98783.13
2022-12-28T15:30:20.570Z,98788.22
2022-12-28T15:32:50.612Z,98784.78
2022-12-28T15:35:17.289Z,98785.84
2022-12-28T15:37:44.028Z,98782.25
2022-12-28T15:40:11.718Z,98791.28
2022-12-28T15:42:40.830Z,98782.63
2022-12-28T15:45:09.101Z,98780.97
2022-12-28T15:47:35.996Z,98781.16
2022-12-28T15:50:03.611Z,98778.69
2022-12-28T15:52:31.787Z,98782.97
